SVMI/CCS METAR and TAF weather

Enter ICAO airport designator
Station Type Date Time Source
SVMI METAR 2021/05/12 02:00 UTC NOAA

SVMI 120200Z 11002KT 9999 FEW016 27/23 Q1012


Station Type Date Time Source
SVMI Decoded METAR 2021/05/12 02:00 UTC NOAA

Caracas / Maiquetia Aerop. Intl. Simon Bolivar, Venezuela (SVMI) 10-36N 066-59W 48M
May 11, 2021 - 10:00 PM EDT / 2021.05.12 0200 UTC
Wind: from the ESE (110 degrees) at 2 MPH (2 KT):0
Visibility: greater than 7 mile(s):0
Sky conditions: mostly clear
Temperature: 80 F (27 C)
Dew Point: 73 F (23 C)
Relative Humidity: 78%
Pressure (altimeter): 29.88 in. Hg (1012 hPa)
ob: SVMI 120200Z 11002KT 9999 FEW016 27/23 Q1012
cycle: 2

Station Type Date Time Source
SVMI TAF 2021/05/12 00:00 UTC NOAA

TAF SVMI 112200Z 1200/1300 07004KT 9999 SCT016 TX31/1217Z TN23/1207Z
BECMG 1200/1204 09007KT 9000 -DZ BKN016

Example: see airport list